Time;durP1;ratioP1;P1;durP2;ratioP2;P2;SDS_P1;SDS_P2;PMS_P1;PMS_P2;Temp;Humidity;BMP_temperature;BMP_pressure;BME280_temperature;BME280_humidity;BME280_pressure;Samples;Min_cycle;Max_cycle;Signal;HPM_P1;HPM_P2
2023/07/31 00:00:20;;;;;;;2.75;1.80;;;;;;;32.40;22.81;101170.22;4951066;28;20494;-79
2023/07/31 00:02:58;;;;;;;2.00;1.60;;;;;;;32.43;22.81;101167.38;4950274;28;20042;-80
2023/07/31 00:05:26;;;;;;;2.22;2.00;;;;;;;32.48;22.91;101160.81;4952224;28;20450;-79
2023/07/31 00:07:55;;;;;;;2.55;1.60;;;;;;;32.51;22.35;101158.00;4947478;28;20541;-77
2023/07/31 00:10:26;;;;;;;2.47;1.95;;;;;;;32.50;23.39;101163.38;4946025;28;20138;-77
2023/07/31 00:12:57;;;;;;;2.40;1.50;;;;;;;32.38;22.84;101156.06;4949374;28;20087;-79
2023/07/31 00:15:26;;;;;;;3.25;1.90;;;;;;;32.28;22.88;101151.22;4948747;28;20296;-82
2023/07/31 00:17:56;;;;;;;2.13;1.52;;;;;;;32.25;23.19;101154.03;4950769;28;20051;-77
2023/07/31 00:20:25;;;;;;;2.55;1.90;;;;;;;32.24;22.78;101163.03;4950844;28;20047;-78
2023/07/31 00:22:54;;;;;;;1.95;1.60;;;;;;;32.18;23.25;101157.16;4947707;28;20065;-80
2023/07/31 00:25:23;;;;;;;2.97;1.63;;;;;;;32.13;22.94;101146.69;4951091;28;20058;-81
2023/07/31 00:27:51;;;;;;;3.50;1.67;;;;;;;32.16;22.70;101151.88;4949332;28;20058;-79
2023/07/31 00:30:20;;;;;;;2.65;1.80;;;;;;;32.20;22.54;101150.75;4945812;28;20139;-80
2023/07/31 00:32:48;;;;;;;3.20;1.90;;;;;;;32.22;22.80;101146.19;4949476;28;20047;-78
2023/07/31 00:35:26;;;;;;;2.20;1.73;;;;;;;32.23;22.95;101142.56;4949914;28;20044;-78
2023/07/31 00:37:54;;;;;;;2.28;1.65;;;;;;;32.17;23.43;101147.41;4947137;28;20047;-78
2023/07/31 00:40:23;;;;;;;2.28;2.05;;;;;;;32.12;24.37;101144.97;4944303;28;20055;-81
2023/07/31 00:42:52;;;;;;;2.47;1.52;;;;;;;32.07;23.98;101149.69;4926380;29;20050;-80
2023/07/31 00:45:22;;;;;;;2.03;1.48;;;;;;;32.05;23.44;101143.59;4953362;28;20039;-81
2023/07/31 00:47:51;;;;;;;2.80;2.10;;;;;;;32.05;23.58;101148.94;4949687;28;20078;-77
2023/07/31 00:50:22;;;;;;;2.60;1.80;;;;;;;31.96;23.79;101147.63;4950884;28;20051;-77
2023/07/31 00:52:50;;;;;;;3.30;1.70;;;;;;;31.87;24.87;101150.75;4949544;28;20051;-78
2023/07/31 00:55:37;;;;;;;2.33;1.63;;;;;;;31.83;23.57;101150.03;4950217;28;20047;-82
2023/07/31 00:58:05;;;;;;;3.00;2.13;;;;;;;31.81;23.29;101146.59;4943920;28;20055;-80
2023/07/31 01:00:34;;;;;;;2.80;1.48;;;;;;;31.74;24.58;101142.50;4950947;28;21140;-79
2023/07/31 01:03:05;;;;;;;2.60;1.65;;;;;;;31.64;24.68;101143.97;4948246;28;20051;-78
2023/07/31 01:05:45;;;;;;;4.72;1.95;;;;;;;31.54;23.95;101138.19;4945414;28;20076;-77
2023/07/31 01:08:23;;;;;;;2.65;1.80;;;;;;;31.45;24.20;101144.91;4944992;28;20082;-82
2023/07/31 01:10:57;;;;;;;2.42;1.75;;;;;;;31.35;24.52;101138.25;4945818;28;20122;-77
2023/07/31 01:13:26;;;;;;;3.28;1.98;;;;;;;31.24;24.81;101135.28;4944360;28;20051;-80
2023/07/31 01:15:55;;;;;;;3.22;1.80;;;;;;;31.17;24.67;101141.88;4948474;28;20564;-79
2023/07/31 01:18:24;;;;;;;2.45;1.80;;;;;;;31.08;25.25;101135.19;4952179;28;20051;-78
2023/07/31 01:21:06;;;;;;;5.00;1.98;;;;;;;31.00;25.75;101132.91;4950760;28;20059;-79
2023/07/31 01:24:17;;;;;;;3.03;1.90;;;;;;;30.86;25.83;101130.06;4948593;28;20534;-79
2023/07/31 01:26:55;;;;;;;2.60;2.08;;;;;;;30.72;26.13;101133.38;4948088;28;20076;-78
2023/07/31 01:29:30;;;;;;;2.58;2.13;;;;;;;30.63;25.76;101137.38;4945259;28;20063;-77
2023/07/31 01:32:01;;;;;;;2.63;1.92;;;;;;;30.44;26.05;101136.50;4940560;28;20122;-78
2023/07/31 01:34:31;;;;;;;3.37;2.20;;;;;;;30.12;26.80;101135.31;4946122;28;20047;-78
2023/07/31 01:36:59;;;;;;;2.60;1.95;;;;;;;29.83;27.29;101132.19;4948382;28;20055;-77
2023/07/31 01:39:28;;;;;;;2.75;2.03;;;;;;;29.67;27.49;101134.66;4949080;28;20077;-78
2023/07/31 01:42:01;;;;;;;3.00;1.98;;;;;;;29.67;27.42;101131.97;4948517;28;20708;-78
2023/07/31 01:44:32;;;;;;;3.55;2.03;;;;;;;29.66;27.83;101130.22;4943874;28;20047;-78
2023/07/31 01:47:01;;;;;;;5.53;1.95;;;;;;;29.67;27.09;101137.31;4947053;28;20079;-77
2023/07/31 01:49:30;;;;;;;2.28;1.90;;;;;;;29.64;27.72;101138.31;4948440;28;20746;-78
2023/07/31 01:51:59;;;;;;;3.50;1.80;;;;;;;29.61;28.02;101138.44;4949366;28;20066;-79
2023/07/31 01:54:29;;;;;;;2.55;1.90;;;;;;;29.60;27.73;101136.72;4947658;28;20078;-78
2023/07/31 01:56:59;;;;;;;4.45;2.17;;;;;;;29.56;27.74;101139.59;4945340;28;20054;-78
2023/07/31 01:59:28;;;;;;;1.95;1.50;;;;;;;29.53;28.54;101147.72;4944970;28;20426;-79
2023/07/31 02:01:57;;;;;;;3.50;1.90;;;;;;;29.46;28.15;101139.13;4948894;28;20055;-79
2023/07/31 02:04:26;;;;;;;2.88;1.70;;;;;;;29.40;28.57;101140.25;4946579;28;20055;-79
2023/07/31 02:06:55;;;;;;;2.28;1.80;;;;;;;29.34;28.13;101143.16;4950357;28;20091;-78
2023/07/31 02:09:24;;;;;;;3.42;1.95;;;;;;;29.27;29.76;101143.50;4944059;28;20565;-76
2023/07/31 02:11:53;;;;;;;7.75;2.00;;;;;;;29.08;29.28;101141.59;4947126;28;20055;-79
2023/07/31 02:14:23;;;;;;;3.85;1.70;;;;;;;29.03;29.73;101146.22;4950583;28;20043;-76
2023/07/31 02:16:52;;;;;;;2.45;1.80;;;;;;;28.99;29.19;101145.47;4948079;28;20055;-78
2023/07/31 02:19:20;;;;;;;2.38;1.80;;;;;;;28.99;29.20;101149.94;4951242;28;20117;-78
2023/07/31 02:21:49;;;;;;;2.63;1.67;;;;;;;28.94;28.41;101150.13;4949518;28;20047;-78
2023/07/31 02:24:17;;;;;;;2.72;1.75;;;;;;;28.87;28.74;101150.47;4949510;28;20106;-79
2023/07/31 02:26:46;;;;;;;1.65;1.42;;;;;;;28.80;28.72;101153.38;4946980;28;20063;-79
2023/07/31 02:29:20;;;;;;;3.17;1.90;;;;;;;28.75;29.21;101155.34;4940995;28;20055;-79
2023/07/31 02:31:50;;;;;;;1.88;1.45;;;;;;;28.64;29.40;101159.38;4946539;28;20055;-80
2023/07/31 02:34:18;;;;;;;3.05;1.42;;;;;;;28.53;29.44;101162.44;4949947;28;20043;-79
2023/07/31 02:36:47;;;;;;;2.35;1.45;;;;;;;28.42;29.35;101169.00;4948972;28;20055;-76
2023/07/31 02:39:16;;;;;;;3.38;1.50;;;;;;;28.28;29.65;101170.47;4951842;28;20493;-77
2023/07/31 02:41:47;;;;;;;2.65;1.50;;;;;;;28.11;30.28;101171.97;4950468;28;20053;-76
2023/07/31 02:44:16;;;;;;;2.30;1.57;;;;;;;27.97;30.78;101182.25;4949186;28;20142;-77
2023/07/31 02:46:44;;;;;;;2.05;1.60;;;;;;;27.85;31.35;101180.03;4947700;28;20056;-77
2023/07/31 02:49:16;;;;;;;2.63;1.55;;;;;;;27.70;31.30;101182.28;4950420;28;20074;-76
2023/07/31 02:51:47;;;;;;;;;;;;;;;27.60;31.77;101180.00;4946837;28;20075;-77
2023/07/31 02:54:16;;;;;;;2.78;1.13;;;;;;;27.50;31.95;101184.75;4948363;28;19927;-78
2023/07/31 02:56:45;;;;;;;3.20;1.52;;;;;;;27.38;32.16;101193.16;4948026;28;20326;-75
2023/07/31 02:59:14;;;;;;;2.03;1.35;;;;;;;27.24;32.38;101199.78;4955321;28;20054;-77
2023/07/31 03:01:51;;;;;;;2.30;1.40;;;;;;;27.10;32.77;101196.69;4952520;28;20058;-77
2023/07/31 03:04:22;;;;;;;1.98;1.40;;;;;;;27.04;33.15;101196.88;4946196;28;20429;-78
2023/07/31 03:06:50;;;;;;;3.75;1.27;;;;;;;26.97;32.93;101190.03;4947120;28;20586;-77
2023/07/31 03:09:21;;;;;;;1.52;1.25;;;;;;;26.84;33.55;101193.06;4949993;28;20055;-76
2023/07/31 03:11:50;;;;;;;2.70;1.33;;;;;;;26.70;33.33;101188.19;4947764;28;20050;-77
2023/07/31 03:14:19;;;;;;;2.35;1.75;;;;;;;26.58;34.10;101198.31;4944759;28;20497;-75
2023/07/31 03:16:47;;;;;;;4.82;1.70;;;;;;;26.45;34.31;101190.66;4950237;28;20074;-74
2023/07/31 03:19:16;;;;;;;2.38;1.48;;;;;;;26.32;34.34;101191.97;4943484;28;20604;-77
2023/07/31 03:21:53;;;;;;;1.30;1.10;;;;;;;26.22;34.44;101195.78;4946774;28;20056;-75
2023/07/31 03:24:37;;;;;;;2.88;1.30;;;;;;;26.08;34.83;101207.66;4949433;28;20625;-77
2023/07/31 03:27:08;;;;;;;2.92;1.20;;;;;;;25.93;34.64;101205.44;4956358;28;20511;-78
2023/07/31 03:29:36;;;;;;;4.68;1.45;;;;;;;25.78;34.79;101205.81;4946963;28;20094;-77
2023/07/31 03:32:05;;;;;;;1.90;1.20;;;;;;;25.69;35.34;101210.44;4950007;28;20126;-77
2023/07/31 03:34:33;;;;;;;1.83;1.10;;;;;;;25.63;35.05;101218.56;4949500;28;20043;-78
2023/07/31 03:37:04;;;;;;;2.17;1.60;;;;;;;25.54;35.52;101204.66;4950966;28;20047;-78
2023/07/31 03:39:35;;;;;;;2.13;1.25;;;;;;;25.35;35.85;101206.91;4947336;28;20479;-79
2023/07/31 03:42:04;;;;;;;2.10;1.35;;;;;;;25.27;35.99;101210.63;4950604;28;20051;-77
2023/07/31 03:44:33;;;;;;;1.80;1.10;;;;;;;25.13;36.36;101212.69;4951632;28;20047;-78
2023/07/31 03:47:02;;;;;;;3.45;1.10;;;;;;;25.07;36.62;101220.78;4949494;28;20065;-78
2023/07/31 03:49:31;;;;;;;1.92;1.50;;;;;;;24.98;36.32;101224.50;4953012;28;20473;-80
2023/07/31 03:52:01;;;;;;;2.97;1.27;;;;;;;24.94;36.85;101225.47;4951236;28;20055;-80
2023/07/31 03:54:32;;;;;;;1.65;1.27;;;;;;;24.90;36.76;101221.19;4954605;28;20056;-77
2023/07/31 03:57:00;;;;;;;3.58;1.52;;;;;;;24.84;36.74;101230.09;4950995;28;20100;-78
2023/07/31 03:59:29;;;;;;;2.58;1.40;;;;;;;24.80;36.93;101223.13;4949246;28;20771;-78
2023/07/31 04:01:58;;;;;;;1.73;1.27;;;;;;;24.77;36.88;101235.59;4947072;28;20110;-81
2023/07/31 04:04:26;;;;;;;2.00;1.30;;;;;;;24.74;37.19;101231.22;4949352;28;20055;-79
2023/07/31 04:07:08;;;;;;;3.08;1.60;;;;;;;24.70;37.28;101240.13;4951819;28;20557;-77
2023/07/31 04:09:38;;;;;;;2.60;1.60;;;;;;;24.64;37.35;101237.59;4947717;28;20054;-77
2023/07/31 04:12:07;;;;;;;2.35;1.42;;;;;;;24.60;37.69;101233.28;4947346;28;20051;-75
2023/07/31 04:14:36;;;;;;;2.63;1.45;;;;;;;24.54;37.75;101234.28;4953584;28;20058;-78
2023/07/31 04:17:04;;;;;;;1.85;1.30;;;;;;;24.49;37.57;101236.16;4952608;28;20062;-78
2023/07/31 04:19:33;;;;;;;1.85;1.30;;;;;;;24.45;37.84;101245.03;4949770;28;20477;-78
2023/07/31 04:22:02;;;;;;;2.47;1.20;;;;;;;24.40;38.10;101246.91;4947306;28;20111;-78
2023/07/31 04:24:30;;;;;;;2.17;1.50;;;;;;;24.32;37.62;101244.41;4944706;28;20047;-77
2023/07/31 04:27:00;;;;;;;1.80;1.23;;;;;;;24.24;38.15;101251.63;4948695;28;20070;-77
2023/07/31 04:29:29;;;;;;;5.65;1.40;;;;;;;24.16;38.44;101237.66;4950829;28;20540;-78
2023/07/31 04:31:57;;;;;;;1.73;1.20;;;;;;;24.10;38.13;101243.97;4952877;28;20062;-77
2023/07/31 04:34:27;;;;;;;1.30;1.17;;;;;;;24.02;38.06;101244.06;4948711;28;20150;-80
2023/07/31 04:36:56;;;;;;;1.65;1.20;;;;;;;23.98;38.26;101244.16;4945512;28;20595;-78
2023/07/31 04:39:24;;;;;;;2.08;1.20;;;;;;;23.94;38.99;101243.38;4948997;28;20055;-77
2023/07/31 04:41:53;;;;;;;3.75;1.55;;;;;;;23.90;38.54;101243.44;4947314;28;20086;-78
2023/07/31 04:44:23;;;;;;;2.08;1.50;;;;;;;23.82;39.11;101243.56;4954804;28;20047;-79
2023/07/31 04:46:54;;;;;;;2.70;1.63;;;;;;;23.77;39.22;101242.78;4946355;28;20055;-77
2023/07/31 04:49:23;;;;;;;1.73;1.23;;;;;;;23.72;39.32;101242.81;4938610;28;20119;-78
2023/07/31 04:51:52;;;;;;;1.88;1.35;;;;;;;23.65;39.12;101249.13;4945347;28;20051;-79
2023/07/31 04:54:20;;;;;;;1.75;1.27;;;;;;;23.59;39.55;101249.22;4950709;28;20541;-79
2023/07/31 04:56:49;;;;;;;3.63;1.50;;;;;;;23.43;39.89;101240.66;4945429;28;20051;-78
2023/07/31 04:59:17;;;;;;;2.30;1.23;;;;;;;23.36;39.70;101255.72;4948996;28;20066;-78
2023/07/31 05:01:48;;;;;;;2.33;1.20;;;;;;;23.29;40.07;101255.88;4945977;28;20134;-79
2023/07/31 05:04:16;;;;;;;1.40;1.23;;;;;;;23.15;40.01;101235.81;4942189;28;20102;-77
2023/07/31 05:06:45;;;;;;;2.03;1.38;;;;;;;23.16;40.40;101250.78;4946037;28;20056;-76
2023/07/31 05:09:14;;;;;;;1.63;1.33;;;;;;;23.10;40.29;101248.22;4953475;28;20066;-80
2023/07/31 05:11:42;;;;;;;1.65;1.10;;;;;;;23.02;40.48;101258.03;4946984;28;20077;-78
2023/07/31 05:14:11;;;;;;;1.73;1.10;;;;;;;22.87;41.03;101245.88;4947199;28;20047;-78
2023/07/31 05:16:40;;;;;;;1.60;1.20;;;;;;;22.86;40.88;101256.44;4947000;28;20509;-79
2023/07/31 05:19:10;;;;;;;3.65;1.10;;;;;;;22.81;41.05;101259.13;4948264;28;20062;-77
2023/07/31 05:21:39;;;;;;;2.03;1.20;;;;;;;22.79;41.41;101263.56;4945624;29;20044;-78
2023/07/31 05:24:07;;;;;;;1.52;1.20;;;;;;;22.69;41.65;101257.53;4948431;28;20089;-78
2023/07/31 05:26:36;;;;;;;2.63;1.30;;;;;;;22.63;41.54;101262.91;4944720;28;20496;-79
2023/07/31 05:29:04;;;;;;;1.65;1.10;;;;;;;22.56;42.19;101258.56;4945255;28;20059;-79
2023/07/31 05:31:33;;;;;;;1.50;1.10;;;;;;;22.46;41.98;101265.72;4949274;28;20442;-78
2023/07/31 05:34:04;;;;;;;3.42;1.13;;;;;;;22.37;42.58;101271.09;4948365;28;20089;-79
2023/07/31 05:36:35;;;;;;;2.78;1.15;;;;;;;22.31;42.30;101272.06;4949393;28;20600;-78
2023/07/31 05:39:07;;;;;;;2.67;1.30;;;;;;;22.21;42.64;101259.84;4949847;28;20060;-76
2023/07/31 05:41:35;;;;;;;1.92;1.33;;;;;;;22.15;42.85;101271.31;4941456;28;20147;-75
2023/07/31 05:44:04;;;;;;;3.38;1.20;;;;;;;22.13;42.94;101272.22;4947505;28;20099;-74
2023/07/31 05:46:33;;;;;;;1.88;1.27;;;;;;;22.08;43.40;101269.63;4947067;28;20074;-76
2023/07/31 05:49:02;;;;;;;2.80;1.15;;;;;;;22.03;43.86;101260.00;4944925;28;20469;-76
2023/07/31 05:51:31;;;;;;;2.85;1.10;;;;;;;21.92;43.46;101266.28;4944027;28;20048;-77
2023/07/31 05:54:01;;;;;;;1.80;1.13;;;;;;;21.82;44.31;101261.09;4942708;28;20406;-77
2023/07/31 05:56:33;;;;;;;1.48;1.10;;;;;;;21.71;44.02;101269.06;4946570;28;20074;-78
2023/07/31 05:59:02;;;;;;;2.97;1.30;;;;;;;21.65;44.31;101263.88;4939823;28;20051;-78
2023/07/31 06:01:31;;;;;;;1.45;1.08;;;;;;;21.60;44.63;101261.28;4947542;28;20051;-77
2023/07/31 06:04:00;;;;;;;1.42;1.13;;;;;;;21.52;44.75;101257.81;4941318;28;20098;-77
2023/07/31 06:06:28;;;;;;;1.50;1.20;;;;;;;21.46;44.69;101253.50;4951024;28;20050;-77
2023/07/31 06:08:57;;;;;;;1.63;1.00;;;;;;;21.42;45.08;101258.78;4944639;28;20043;-77
2023/07/31 06:11:27;;;;;;;2.10;1.40;;;;;;;21.37;45.67;101258.75;4944474;28;20050;-77
2023/07/31 06:13:55;;;;;;;2.92;1.00;;;;;;;21.31;45.63;101258.81;4947179;28;20051;-76
2023/07/31 06:16:24;;;;;;;1.67;1.02;;;;;;;21.23;45.54;101255.34;4945805;28;20047;-76
2023/07/31 06:19:01;;;;;;;1.33;0.80;;;;;;;21.16;44.91;101261.53;4948147;28;20051;-76
2023/07/31 06:21:29;;;;;;;1.55;0.93;;;;;;;21.08;45.46;101261.59;4947326;28;20051;-76
2023/07/31 06:23:58;;;;;;;1.30;0.77;;;;;;;21.01;45.85;101276.53;4943526;28;20046;-76
2023/07/31 06:26:28;;;;;;;2.22;1.00;;;;;;;20.95;45.64;101257.28;4944848;28;20911;-79
2023/07/31 06:28:56;;;;;;;6.03;1.10;;;;;;;20.87;45.58;101255.56;4946977;28;20059;-77
2023/07/31 06:31:25;;;;;;;1.25;0.90;;;;;;;20.83;45.49;101260.88;4947911;28;20059;-79
2023/07/31 06:33:54;;;;;;;1.63;0.90;;;;;;;20.81;45.90;101268.75;4945559;28;20497;-78
2023/07/31 06:36:23;;;;;;;1.55;1.02;;;;;;;20.77;45.39;101267.00;4946447;28;20051;-77
2023/07/31 06:38:51;;;;;;;1.05;0.90;;;;;;;20.72;45.87;101258.28;4944510;28;20715;-76
2023/07/31 06:41:22;;;;;;;1.65;0.80;;;;;;;20.65;45.90;101257.41;4943004;28;20050;-76
2023/07/31 06:43:53;;;;;;;1.83;0.90;;;;;;;20.61;46.37;101260.94;4946885;28;20047;-78
2023/07/31 06:46:21;;;;;;;1.23;0.82;;;;;;;20.55;46.87;101266.19;4941498;28;20047;-78
2023/07/31 06:48:50;;;;;;;2.17;0.90;;;;;;;20.48;46.22;101265.34;4942871;28;20103;-78
2023/07/31 06:51:18;;;;;;;3.78;1.10;;;;;;;20.45;46.38;101274.97;4946151;28;20051;-75
2023/07/31 06:53:50;;;;;;;1.42;0.90;;;;;;;20.41;46.52;101274.13;4945430;28;20095;-76
2023/07/31 06:56:18;;;;;;;1.85;1.02;;;;;;;20.37;46.54;101272.38;4946852;28;20062;-75
2023/07/31 06:58:47;;;;;;;2.88;1.10;;;;;;;20.35;46.11;101268.00;4948201;28;20108;-76
2023/07/31 07:01:17;;;;;;;1.58;0.80;;;;;;;20.34;46.24;101272.41;4947404;28;20087;-78
2023/07/31 07:03:46;;;;;;;2.67;0.98;;;;;;;20.33;46.08;101275.91;4948180;28;20043;-78
2023/07/31 07:06:17;;;;;;;1.50;1.00;;;;;;;20.31;46.79;101288.16;4947795;28;20573;-78
2023/07/31 07:08:46;;;;;;;1.23;0.73;;;;;;;20.27;45.68;101287.31;4941525;28;20134;-80
2023/07/31 07:11:14;;;;;;;1.30;0.88;;;;;;;20.26;46.38;101284.69;4947400;28;20317;-77
2023/07/31 07:13:43;;;;;;;0.98;0.80;;;;;;;20.21;46.50;101287.31;4946875;28;20043;-78
2023/07/31 07:16:11;;;;;;;2.00;0.95;;;;;;;20.17;46.78;101290.81;4948218;28;20051;-77
2023/07/31 07:18:42;;;;;;;1.13;0.75;;;;;;;20.14;46.16;101282.94;4944330;28;20138;-80
2023/07/31 07:21:14;;;;;;;0.80;0.60;;;;;;;20.11;46.62;101282.94;4950151;28;20062;-76
2023/07/31 07:23:42;;;;;;;;;;;;;;;20.07;46.23;101286.47;4951613;28;20055;-75
2023/07/31 07:26:10;;;;;;;1.20;0.80;;;;;;;20.04;46.60;101294.31;4949764;28;20424;-79
2023/07/31 07:28:39;;;;;;;1.15;0.60;;;;;;;20.04;46.03;101289.97;4950365;28;20464;-76
2023/07/31 07:31:07;;;;;;;1.25;0.85;;;;;;;20.03;47.10;101292.59;4951077;28;20749;-77
2023/07/31 07:33:36;;;;;;;1.75;0.88;;;;;;;20.01;46.31;101286.47;4950523;28;20094;-77
2023/07/31 07:36:09;;;;;;;1.48;0.60;;;;;;;19.97;46.59;101292.59;4947998;28;20043;-76
2023/07/31 07:38:39;;;;;;;1.00;0.80;;;;;;;19.95;46.86;101294.34;4950607;28;20089;-77
2023/07/31 07:41:07;;;;;;;1.67;0.73;;;;;;;19.90;47.10;101294.34;4949886;28;20134;-77
2023/07/31 07:43:36;;;;;;;1.10;0.63;;;;;;;19.83;46.97;101290.84;4946554;28;20536;-76
2023/07/31 07:46:04;;;;;;;2.70;1.10;;;;;;;19.80;46.68;101296.09;4950073;28;20494;-77
2023/07/31 07:48:33;;;;;;;2.40;0.70;;;;;;;19.80;46.89;101301.34;4948594;28;20042;-76
2023/07/31 07:51:08;;;;;;;1.98;0.88;;;;;;;19.79;47.30;101291.75;4950832;28;20119;-77
2023/07/31 07:53:37;;;;;;;1.77;0.85;;;;;;;19.77;47.23;101297.84;4946529;28;20082;-76
2023/07/31 07:56:05;;;;;;;2.03;1.10;;;;;;;19.73;47.77;101307.47;4948785;28;20059;-77
2023/07/31 07:58:34;;;;;;;1.70;0.80;;;;;;;19.68;47.71;101298.69;4944898;28;20139;-76
2023/07/31 08:01:03;;;;;;;1.40;0.70;;;;;;;19.66;47.71;101303.06;4945162;28;20549;-76
2023/07/31 08:03:31;;;;;;;0.80;0.65;;;;;;;19.56;48.38;101296.03;4946118;28;20058;-76
2023/07/31 08:06:00;;;;;;;1.10;0.73;;;;;;;19.49;48.39;101297.78;4948283;28;20508;-77
2023/07/31 08:08:31;;;;;;;1.00;0.70;;;;;;;19.42;48.70;101304.81;4933386;28;20421;-77
2023/07/31 08:10:59;;;;;;;1.15;0.70;;;;;;;19.35;49.32;101300.38;4930188;29;20900;-77
2023/07/31 08:13:28;;;;;;;2.08;0.52;;;;;;;19.30;49.24;101302.13;4929085;29;20091;-78
2023/07/31 08:15:56;;;;;;;1.50;0.60;;;;;;;19.26;48.98;101305.59;4929967;29;20271;-77
2023/07/31 08:18:25;;;;;;;2.65;0.95;;;;;;;19.22;49.22;101304.75;4938983;29;20961;-77
2023/07/31 08:20:54;;;;;;;1.58;0.73;;;;;;;19.18;49.51;101297.72;4928738;29;20116;-76
2023/07/31 08:23:22;;;;;;;1.60;0.70;;;;;;;19.13;49.89;101306.47;4929559;29;20094;-77
2023/07/31 08:25:58;;;;;;;2.95;0.85;;;;;;;19.04;49.59;101307.31;4930960;29;20052;-77
2023/07/31 08:28:27;;;;;;;0.90;0.50;;;;;;;19.00;50.02;101301.16;4933822;29;20055;-77
2023/07/31 08:30:56;;;;;;;0.90;0.55;;;;;;;19.02;49.62;101309.06;4926990;29;20056;-77
2023/07/31 08:33:24;;;;;;;1.17;0.82;;;;;;;19.00;49.84;101311.66;4930542;29;20493;-77
2023/07/31 08:35:55;;;;;;;1.92;0.93;;;;;;;18.95;49.82;101305.53;4928891;29;20056;-78
2023/07/31 08:38:25;;;;;;;1.52;0.80;;;;;;;18.92;49.98;101308.16;4925504;29;20172;-78
2023/07/31 08:40:55;;;;;;;1.05;0.88;;;;;;;18.90;50.16;101309.00;4926367;29;20062;-77
2023/07/31 08:43:27;;;;;;;2.35;0.95;;;;;;;18.88;50.47;101311.63;4930064;29;20598;-77
2023/07/31 08:45:58;;;;;;;1.92;0.80;;;;;;;18.86;50.57;101313.34;4928298;29;20080;-77
2023/07/31 08:48:27;;;;;;;1.42;0.95;;;;;;;18.80;51.62;101315.94;4927780;29;20055;-78
2023/07/31 08:50:56;;;;;;;1.05;0.63;;;;;;;18.76;51.13;101316.75;4926339;29;20119;-77
2023/07/31 08:53:24;;;;;;;1.98;0.82;;;;;;;18.71;51.96;101319.34;4931070;29;20047;-78
2023/07/31 08:55:58;;;;;;;0.68;0.50;;;;;;;18.63;51.94;101303.59;4931298;29;20061;-77
2023/07/31 08:58:29;;;;;;;2.15;1.02;;;;;;;18.61;52.20;101313.19;4930973;29;20666;-76
2023/07/31 09:00:58;;;;;;;1.27;0.82;;;;;;;18.57;51.98;101315.78;4928645;29;20059;-77
2023/07/31 09:03:27;;;;;;;1.15;0.60;;;;;;;18.54;51.62;101311.41;4931044;29;20050;-77
2023/07/31 09:06:00;;;;;;;0.88;0.52;;;;;;;18.55;52.11;101317.53;4929604;29;20055;-77
2023/07/31 09:08:32;;;;;;;0.80;0.57;;;;;;;18.51;52.87;101314.03;4942080;28;20525;-77
2023/07/31 09:11:04;;;;;;;1.50;0.90;;;;;;;18.48;52.72;101314.00;4946887;28;20086;-76
2023/07/31 09:13:33;;;;;;;2.17;1.00;;;;;;;18.42;52.65;101321.84;4943324;28;20086;-77
2023/07/31 09:16:02;;;;;;;1.75;0.73;;;;;;;18.40;53.61;101319.19;4941865;28;20059;-75
2023/07/31 09:18:31;;;;;;;1.77;0.85;;;;;;;18.34;53.84;101318.28;4939405;28;20054;-76
2023/07/31 09:21:07;;;;;;;2.67;0.60;;;;;;;18.31;53.68;101328.75;4939656;28;20062;-77
2023/07/31 09:23:48;;;;;;;1.55;0.60;;;;;;;18.27;54.42;101324.34;4943127;28;20961;-77
2023/07/31 09:26:34;;;;;;;0.88;0.55;;;;;;;18.22;54.19;101324.31;4939046;28;20333;-76
2023/07/31 09:29:07;;;;;;;2.00;0.77;;;;;;;18.20;54.39;101319.06;4947767;28;20055;-76
2023/07/31 09:31:46;;;;;;;0.47;0.40;;;;;;;18.10;55.10;101314.63;4945677;28;20123;-76
2023/07/31 09:34:14;;;;;;;1.20;0.70;;;;;;;18.10;55.17;101319.00;4945328;28;20528;-76
2023/07/31 09:36:44;;;;;;;1.98;0.70;;;;;;;18.08;55.03;101321.59;4947653;28;20434;-76
2023/07/31 09:39:13;;;;;;;1.02;0.60;;;;;;;18.06;55.35;101318.09;4945928;28;20246;-77
2023/07/31 09:41:46;;;;;;;1.52;0.80;;;;;;;18.05;54.88;101321.59;4945063;28;20489;-77
2023/07/31 09:44:14;;;;;;;2.72;0.70;;;;;;;18.05;54.82;101320.69;4942288;28;20086;-76
2023/07/31 09:46:43;;;;;;;1.95;0.90;;;;;;;18.03;55.52;101325.94;4943559;28;20134;-77
2023/07/31 09:49:13;;;;;;;1.50;0.80;;;;;;;18.04;55.30;101313.72;4945658;28;20097;-77
2023/07/31 09:51:42;;;;;;;0.57;0.40;;;;;;;18.05;55.00;101316.34;4944394;28;20134;-78
2023/07/31 09:54:15;;;;;;;2.60;0.82;;;;;;;18.05;55.32;101307.59;4943977;28;20176;-78
2023/07/31 09:56:46;;;;;;;1.25;0.77;;;;;;;18.03;55.03;101312.84;4944314;28;20490;-77
2023/07/31 09:59:16;;;;;;;2.85;0.80;;;;;;;18.00;55.62;101318.03;4942920;28;20410;-78
2023/07/31 10:01:45;;;;;;;1.55;0.73;;;;;;;17.99;54.94;101311.06;4944711;28;20048;-78
2023/07/31 10:04:16;;;;;;;1.13;0.70;;;;;;;17.98;55.35;101314.53;4946735;28;20127;-78
2023/07/31 10:06:47;;;;;;;1.42;0.63;;;;;;;17.92;54.80;101314.50;4956022;28;20593;-76
2023/07/31 10:09:20;;;;;;;2.42;0.75;;;;;;;17.91;55.64;101316.25;4944670;28;20529;-77
2023/07/31 10:11:57;;;;;;;2.25;1.00;;;;;;;17.89;55.49;101319.69;4944495;28;20055;-77
2023/07/31 10:14:27;;;;;;;0.80;0.63;;;;;;;17.86;55.46;101319.66;4947898;28;20065;-77
2023/07/31 10:16:56;;;;;;;2.45;0.80;;;;;;;17.85;55.89;101313.56;4948067;28;20063;-77
2023/07/31 10:19:25;;;;;;;3.22;0.98;;;;;;;17.85;56.25;101320.53;4945549;28;20658;-77
2023/07/31 10:21:56;;;;;;;0.80;0.80;;;;;;;17.82;56.01;101316.16;4946985;28;20051;-77
2023/07/31 10:24:26;;;;;;;1.90;0.77;;;;;;;17.83;56.43;101330.13;4942276;28;20051;-78
2023/07/31 10:27:01;;;;;;;1.20;0.60;;;;;;;17.78;56.28;101316.97;4944531;28;21181;-78
2023/07/31 10:29:30;;;;;;;1.70;0.90;;;;;;;17.77;56.54;101326.56;4943299;28;20051;-78
2023/07/31 10:32:00;;;;;;;1.48;0.68;;;;;;;17.76;56.18;101322.16;4944867;28;20063;-77
2023/07/31 10:34:30;;;;;;;0.93;0.52;;;;;;;17.75;56.43;101322.16;4946100;28;20090;-77
2023/07/31 10:37:22;;;;;;;1.33;0.70;;;;;;;17.73;57.05;101326.50;4945477;28;20051;-78
2023/07/31 10:39:59;;;;;;;1.67;0.70;;;;;;;17.70;57.05;101329.09;4942643;28;20079;-76
2023/07/31 10:42:34;;;;;;;1.95;0.73;;;;;;;17.66;56.85;101332.53;4944425;28;20605;-78
2023/07/31 10:45:05;;;;;;;1.83;0.70;;;;;;;17.61;57.46;101331.63;4941445;28;20142;-77
2023/07/31 10:47:39;;;;;;;1.20;0.60;;;;;;;17.57;57.16;101331.59;4949400;28;20035;-78
2023/07/31 10:50:19;;;;;;;1.20;0.80;;;;;;;17.53;57.91;101328.94;4946976;28;20512;-77
2023/07/31 10:52:55;;;;;;;1.13;0.60;;;;;;;17.47;57.54;101334.09;4943482;28;20721;-77
2023/07/31 10:55:31;;;;;;;3.00;0.90;;;;;;;17.41;57.91;101326.19;4944421;28;20607;-76
2023/07/31 10:58:09;;;;;;;1.23;0.70;;;;;;;17.37;58.13;101328.78;4946863;28;20055;-77
2023/07/31 11:00:40;;;;;;;0.95;0.70;;;;;;;17.34;58.41;101335.69;4950915;28;20054;-77
2023/07/31 11:03:10;;;;;;;2.03;0.70;;;;;;;17.26;58.79;101327.78;4949213;28;20051;-76
2023/07/31 11:05:50;;;;;;;1.58;0.90;;;;;;;17.20;58.76;101332.91;4953756;28;20051;-77
2023/07/31 11:08:21;;;;;;;0.88;0.60;;;;;;;17.14;58.81;101330.25;4949029;28;20074;-78
2023/07/31 11:10:52;;;;;;;2.22;1.58;;;;;;;17.11;59.85;101335.44;4945928;28;20685;-77
2023/07/31 11:13:22;;;;;;;0.80;0.60;;;;;;;17.10;59.54;101325.84;4944172;28;20139;-77
2023/07/31 11:15:53;;;;;;;1.23;0.70;;;;;;;17.04;60.33;101328.38;4948342;28;20051;-77
2023/07/31 11:18:22;;;;;;;0.88;0.63;;;;;;;16.97;60.88;101330.03;4950417;28;20103;-76
2023/07/31 11:20:51;;;;;;;1.40;0.70;;;;;;;16.87;62.34;101339.50;4948344;28;20051;-76
2023/07/31 11:23:20;;;;;;;1.15;0.68;;;;;;;16.78;62.78;101338.47;4949406;28;20054;-76
2023/07/31 11:25:48;;;;;;;2.15;0.90;;;;;;;16.69;63.05;101342.72;4941382;28;20051;-75
2023/07/31 11:28:18;;;;;;;1.30;1.02;;;;;;;16.60;64.18;101328.66;4949307;28;20441;-75
2023/07/31 11:30:49;;;;;;;2.22;0.68;;;;;;;16.54;63.71;101339.91;4947666;28;20050;-74
2023/07/31 11:33:17;;;;;;;1.75;0.60;;;;;;;16.51;64.03;101345.94;4947388;28;20061;-75
2023/07/31 11:35:48;;;;;;;1.58;0.90;;;;;;;16.46;64.76;101354.56;4950042;28;20525;-75
2023/07/31 11:38:25;;;;;;;2.65;0.73;;;;;;;16.43;65.55;101352.81;4948138;28;20061;-76
2023/07/31 11:40:54;;;;;;;1.42;0.85;;;;;;;16.36;64.66;101345.72;4947356;28;20059;-75